createdAt,value
2022-10-31T00:02:08.535Z,101792.38
2022-10-31T00:05:05.415Z,101787.59
2022-10-31T00:08:02.251Z,101792.13
2022-10-31T00:10:59.548Z,101789.84
2022-10-31T00:13:56.344Z,101792.81
2022-10-31T00:16:53.880Z,101797.06
2022-10-31T00:19:51.253Z,101790.47
2022-10-31T00:22:48.280Z,101807.78
2022-10-31T00:25:45.432Z,101817.91
2022-10-31T00:28:42.068Z,101811.22
2022-10-31T00:31:39.510Z,101807.97
2022-10-31T00:34:36.358Z,101822.09
2022-10-31T00:37:33.238Z,101816.38
2022-10-31T00:40:30.078Z,101820.88
2022-10-31T00:43:30.603Z,101829.66
2022-10-31T00:46:27.576Z,101827.44
2022-10-31T00:49:24.611Z,101826.47
2022-10-31T00:52:21.695Z,101841.91
2022-10-31T00:55:18.473Z,101844.91
2022-10-31T01:01:17.476Z,101838.16
2022-10-31T01:04:14.394Z,101834.13
2022-10-31T01:07:13.386Z,101822.63
2022-10-31T01:10:10.711Z,101836.00
2022-10-31T01:13:07.542Z,101828.41
2022-10-31T01:16:05.461Z,101822.69
2022-10-31T01:19:03.181Z,101834.47
2022-10-31T01:22:00.703Z,101837.81
2022-10-31T01:25:00.216Z,101838.69
2022-10-31T01:27:57.916Z,101848.34
2022-10-31T01:30:55.162Z,101845.41
2022-10-31T01:33:52.547Z,101841.25
2022-10-31T01:36:52.409Z,101848.97
2022-10-31T01:39:50.610Z,101833.78
2022-10-31T01:42:47.593Z,101836.00
2022-10-31T01:45:46.131Z,101839.88
2022-10-31T01:48:44.198Z,101837.75
2022-10-31T01:51:52.316Z,101844.94
2022-10-31T01:54:52.946Z,101832.06
2022-10-31T01:57:52.230Z,101827.06
2022-10-31T02:00:51.618Z,101825.56
2022-10-31T02:03:48.806Z,101828.53
2022-10-31T02:07:07.753Z,101842.00
2022-10-31T02:10:04.627Z,101835.84
2022-10-31T02:13:03.219Z,101845.78
2022-10-31T02:16:00.698Z,101848.09
2022-10-31T02:18:58.860Z,101843.50
2022-10-31T02:22:28.407Z,101852.88
2022-10-31T02:25:53.009Z,101852.69
2022-10-31T02:29:11.689Z,101848.81
2022-10-31T02:32:17.857Z,101846.88
2022-10-31T02:35:24.439Z,101846.47
2022-10-31T02:38:39.594Z,101864.63
2022-10-31T02:41:49.330Z,101863.50
2022-10-31T02:45:06.154Z,101849.88
2022-10-31T02:48:09.074Z,101848.59
2022-10-31T02:51:06.556Z,101847.13
2022-10-31T02:54:06.390Z,101848.47
2022-10-31T02:57:05.567Z,101842.94
2022-10-31T03:00:05.050Z,101858.56
2022-10-31T03:03:16.076Z,101856.19
2022-10-31T03:06:27.948Z,101855.25
2022-10-31T03:09:33.980Z,101854.53
2022-10-31T03:12:48.780Z,101851.56
2022-10-31T03:15:51.126Z,101864.72
2022-10-31T03:19:05.321Z,101848.97
2022-10-31T03:22:07.815Z,101873.66
2022-10-31T03:25:05.146Z,101860.22
2022-10-31T03:28:03.123Z,101857.22
2022-10-31T03:31:02.367Z,101849.41
2022-10-31T03:34:02.514Z,101859.13
2022-10-31T03:37:02.736Z,101863.25
2022-10-31T03:40:00.229Z,101855.16
2022-10-31T03:43:02.344Z,101866.69
2022-10-31T03:45:59.358Z,101866.06
2022-10-31T03:48:56.455Z,101864.94
2022-10-31T03:52:05.411Z,101865.22
2022-10-31T03:55:25.345Z,101878.88
2022-10-31T03:58:27.034Z,101881.78
2022-10-31T04:01:24.943Z,101871.94
2022-10-31T04:04:22.627Z,101864.34
2022-10-31T04:07:20.485Z,101875.38
2022-10-31T04:10:20.547Z,101883.63
2022-10-31T04:13:20.968Z,101876.91
2022-10-31T04:16:26.485Z,101872.44
2022-10-31T04:19:23.370Z,101871.72
2022-10-31T04:22:20.260Z,101882.31
2022-10-31T04:25:17.750Z,101887.63
2022-10-31T04:28:14.811Z,101874.50
2022-10-31T04:31:13.622Z,101865.59
2022-10-31T04:34:11.751Z,101879.69
2022-10-31T04:37:09.599Z,101862.41
2022-10-31T04:40:06.990Z,101853.91
2022-10-31T04:43:24.698Z,101857.75
2022-10-31T04:46:21.560Z,101855.28
2022-10-31T04:49:18.503Z,101842.38
2022-10-31T04:52:15.188Z,101853.03
2022-10-31T04:55:13.812Z,101848.91
2022-10-31T04:58:29.639Z,101846.66
2022-10-31T05:01:26.948Z,101853.63
2022-10-31T05:04:25.860Z,101853.28
2022-10-31T05:07:23.733Z,101853.28
2022-10-31T05:10:30.403Z,101857.31
2022-10-31T05:13:29.897Z,101861.00
2022-10-31T05:16:44.432Z,101859.91
2022-10-31T05:19:59.652Z,101855.66
2022-10-31T05:23:21.619Z,101867.63
2022-10-31T05:26:18.596Z,101857.91
2022-10-31T05:29:15.473Z,101855.19
2022-10-31T05:32:12.294Z,101858.00
2022-10-31T05:35:47.677Z,101857.50
2022-10-31T05:39:02.575Z,101868.16
2022-10-31T05:42:05.598Z,101867.25
2022-10-31T05:45:02.761Z,101869.03
2022-10-31T05:48:16.558Z,101842.38
2022-10-31T05:51:39.770Z,101844.56
2022-10-31T05:54:38.822Z,101854.25
2022-10-31T05:57:35.872Z,101858.88
2022-10-31T06:00:36.066Z,101858.22
2022-10-31T06:03:37.949Z,101861.06
2022-10-31T06:06:38.831Z,101861.94
2022-10-31T06:09:37.700Z,101870.34
2022-10-31T06:12:41.526Z,101865.09
2022-10-31T06:15:52.678Z,101854.94
2022-10-31T06:18:52.666Z,101863.81
2022-10-31T06:21:49.530Z,101863.56
2022-10-31T06:24:46.428Z,101865.25
2022-10-31T06:27:57.055Z,101867.47
2022-10-31T06:30:59.556Z,101894.22
2022-10-31T06:33:56.572Z,101887.22
2022-10-31T06:36:54.055Z,101878.97
2022-10-31T06:39:54.702Z,101872.34
2022-10-31T06:43:01.708Z,101873.91
2022-10-31T06:46:03.556Z,101878.00
2022-10-31T06:49:13.507Z,101881.06
2022-10-31T06:52:20.458Z,101884.66
2022-10-31T06:55:18.036Z,101888.13
2022-10-31T06:58:15.614Z,101891.94
2022-10-31T07:01:14.546Z,101904.41
2022-10-31T07:04:12.297Z,101902.41
2022-10-31T07:07:09.649Z,101901.00
2022-10-31T07:10:08.942Z,101895.19
2022-10-31T07:13:18.674Z,101893.88
2022-10-31T07:16:21.868Z,101892.19
2022-10-31T07:19:19.973Z,101886.97
2022-10-31T07:22:17.558Z,101897.75
2022-10-31T07:25:15.639Z,101897.41
2022-10-31T07:28:30.695Z,101897.81
2022-10-31T07:31:27.567Z,101893.56
2022-10-31T07:34:28.676Z,101897.28
2022-10-31T07:37:44.711Z,101905.03
2022-10-31T07:40:42.662Z,101907.13
2022-10-31T07:43:39.755Z,101896.06
2022-10-31T07:46:48.559Z,101907.34
2022-10-31T07:49:54.647Z,101904.00
2022-10-31T07:53:29.501Z,101906.72
2022-10-31T07:56:35.443Z,101903.56
2022-10-31T07:59:32.776Z,101898.94
2022-10-31T08:02:30.848Z,101900.25
2022-10-31T08:05:48.747Z,101897.38
2022-10-31T08:09:15.071Z,101905.94
2022-10-31T08:12:14.967Z,101906.44
2022-10-31T08:15:11.851Z,101909.91
2022-10-31T08:18:15.743Z,101915.22
2022-10-31T08:21:13.756Z,101905.53
2022-10-31T08:24:10.697Z,101904.63
2022-10-31T08:27:07.425Z,101900.88
2022-10-31T08:30:05.280Z,101902.31
2022-10-31T08:33:05.630Z,101898.84
2022-10-31T08:36:22.223Z,101907.22
2022-10-31T08:39:21.801Z,101905.69
2022-10-31T08:42:20.864Z,101895.66
2022-10-31T08:45:17.834Z,101894.94
2022-10-31T08:48:15.682Z,101893.06
2022-10-31T08:51:12.623Z,101896.34
2022-10-31T08:54:09.536Z,101885.38
2022-10-31T08:57:06.866Z,101875.56
2022-10-31T09:00:11.422Z,101879.56
2022-10-31T09:03:26.279Z,101883.25
2022-10-31T09:06:23.923Z,101876.47
2022-10-31T09:09:20.644Z,101880.34
2022-10-31T09:12:18.766Z,101878.13
2022-10-31T09:15:40.199Z,101867.88
2022-10-31T09:18:49.125Z,101861.31
2022-10-31T09:21:47.956Z,101865.72
2022-10-31T09:24:45.082Z,101877.44
2022-10-31T09:27:42.885Z,101868.31
2022-10-31T09:30:39.692Z,101874.13
2022-10-31T09:33:38.180Z,101856.94
2022-10-31T09:36:55.750Z,101861.28
2022-10-31T09:39:54.662Z,101868.84
2022-10-31T09:43:06.392Z,101869.00
2022-10-31T09:46:18.681Z,101877.16
2022-10-31T09:49:34.134Z,101871.84
2022-10-31T09:52:33.362Z,101882.94
2022-10-31T09:55:46.015Z,101877.81
2022-10-31T09:58:45.006Z,101868.53
2022-10-31T10:01:48.921Z,101881.19
2022-10-31T10:04:54.125Z,101877.44
2022-10-31T10:08:03.271Z,101877.00
2022-10-31T10:11:56.148Z,101881.13
2022-10-31T10:15:31.245Z,101873.69
2022-10-31T10:19:08.191Z,101891.41
2022-10-31T10:22:21.292Z,101887.78
2022-10-31T10:25:24.487Z,101885.66
2022-10-31T10:28:30.181Z,101874.72
2022-10-31T10:31:36.316Z,101883.81
2022-10-31T10:34:41.117Z,101883.13
2022-10-31T10:37:39.802Z,101880.88
2022-10-31T10:40:37.086Z,101878.63
2022-10-31T10:43:38.174Z,101874.34
2022-10-31T10:47:11.752Z,101866.34
2022-10-31T10:50:33.807Z,101866.84
2022-10-31T10:54:10.318Z,101865.88
2022-10-31T10:57:55.116Z,101859.94
2022-10-31T11:00:52.101Z,101864.50
2022-10-31T11:03:49.963Z,101870.97
2022-10-31T11:06:48.140Z,101851.91
2022-10-31T11:09:45.227Z,101849.44
2022-10-31T11:12:42.317Z,101844.94
2022-10-31T11:16:04.235Z,101844.69
2022-10-31T11:19:13.328Z,101836.19
2022-10-31T11:22:17.643Z,101833.59
2022-10-31T11:25:20.942Z,101835.41
2022-10-31T11:28:18.018Z,101827.16
2022-10-31T11:31:14.982Z,101812.41
2022-10-31T11:34:34.152Z,101817.66
2022-10-31T11:37:36.152Z,101807.28
2022-10-31T11:40:32.675Z,101803.50
2022-10-31T11:43:29.609Z,101794.81
2022-10-31T11:46:36.231Z,101785.38
2022-10-31T11:49:42.040Z,101768.78
2022-10-31T11:52:40.066Z,101747.50
2022-10-31T11:55:38.528Z,101741.28
2022-10-31T11:58:35.899Z,101734.25
2022-10-31T12:01:33.794Z,101727.19
2022-10-31T12:04:45.619Z,101727.19
2022-10-31T12:07:42.990Z,101729.84
2022-10-31T12:11:30.663Z,101720.97
2022-10-31T12:14:50.887Z,101719.41
2022-10-31T12:18:09.927Z,101723.00
2022-10-31T12:21:17.029Z,101720.78
2022-10-31T12:24:35.651Z,101718.44
2022-10-31T12:27:49.026Z,101713.72
2022-10-31T12:31:04.525Z,101711.69
2022-10-31T12:34:08.215Z,101700.88
2022-10-31T12:37:23.053Z,101684.06
2022-10-31T12:40:26.169Z,101673.88
2022-10-31T12:43:41.852Z,101661.34
2022-10-31T12:47:23.673Z,101654.59
2022-10-31T12:50:29.854Z,101654.56
2022-10-31T12:53:54.608Z,101655.84
2022-10-31T12:57:13.525Z,101652.84
2022-10-31T13:00:18.718Z,101658.66
2022-10-31T13:03:32.203Z,101651.53
2022-10-31T13:06:38.490Z,101612.50
2022-10-31T13:09:46.291Z,101618.53
2022-10-31T13:12:43.191Z,101606.38
2022-10-31T13:15:52.046Z,101596.53
2022-10-31T13:19:30.616Z,101581.94
2022-10-31T13:22:30.641Z,101593.56
2022-10-31T13:25:31.366Z,101598.66
2022-10-31T13:28:36.660Z,101595.47
2022-10-31T13:31:34.286Z,101594.31
2022-10-31T13:34:41.942Z,101602.91
2022-10-31T13:37:45.282Z,101600.09
2022-10-31T13:40:41.576Z,101590.22
2022-10-31T13:44:02.195Z,101589.19
2022-10-31T13:46:58.922Z,101563.28
2022-10-31T13:50:24.597Z,101555.72
2022-10-31T13:53:23.039Z,101555.31
2022-10-31T13:56:23.322Z,101546.97
2022-10-31T13:59:23.942Z,101538.72
2022-10-31T14:02:27.364Z,101522.63
2022-10-31T14:05:34.615Z,101508.16
2022-10-31T14:08:34.027Z,101506.97
2022-10-31T14:11:34.525Z,101502.09
2022-10-31T14:14:44.065Z,101484.72
2022-10-31T14:17:51.228Z,101492.59
2022-10-31T14:20:48.353Z,101495.84
2022-10-31T14:23:48.405Z,101495.94
2022-10-31T14:26:59.068Z,101491.75
2022-10-31T14:29:56.346Z,101477.53
2022-10-31T14:32:58.920Z,101491.16
2022-10-31T14:35:56.338Z,101488.28
2022-10-31T14:39:20.636Z,101472.09
2022-10-31T14:42:56.871Z,101470.69
2022-10-31T14:46:04.552Z,101473.16
2022-10-31T14:49:20.283Z,101486.59
2022-10-31T14:52:18.068Z,101479.34
2022-10-31T14:55:15.162Z,101471.53
2022-10-31T14:58:16.687Z,101464.88
2022-10-31T15:01:32.345Z,101469.03
2022-10-31T15:04:33.426Z,101455.47
2022-10-31T15:07:34.985Z,101453.56
2022-10-31T15:10:37.526Z,101456.41
2022-10-31T15:13:35.001Z,101453.00
2022-10-31T15:16:33.965Z,101452.53
2022-10-31T15:19:32.066Z,101453.22
2022-10-31T15:22:28.992Z,101451.19
2022-10-31T15:25:34.387Z,101444.63
2022-10-31T15:28:32.454Z,101442.50
2022-10-31T15:31:29.211Z,101443.41
2022-10-31T15:34:29.144Z,101426.22
2022-10-31T15:37:27.020Z,101414.03
2022-10-31T15:40:25.623Z,101415.72
2022-10-31T15:43:23.142Z,101406.59
2022-10-31T15:46:20.534Z,101414.75
2022-10-31T15:49:38.119Z,101407.38
2022-10-31T15:52:41.102Z,101404.81
2022-10-31T15:55:47.373Z,101399.38
2022-10-31T15:58:45.951Z,101390.94
2022-10-31T16:01:43.682Z,101388.97
2022-10-31T16:04:53.830Z,101394.06
2022-10-31T16:07:51.708Z,101389.34
2022-10-31T16:10:49.199Z,101400.63
2022-10-31T16:14:08.726Z,101393.50
2022-10-31T16:17:06.089Z,101395.13
2022-10-31T16:20:05.581Z,101389.56
2022-10-31T16:23:03.650Z,101392.53
2022-10-31T16:26:01.141Z,101398.81
2022-10-31T16:29:04.626Z,101404.19
2022-10-31T16:32:02.330Z,101402.31
2022-10-31T16:35:11.331Z,101409.28
2022-10-31T16:38:10.397Z,101404.28
2022-10-31T16:41:08.066Z,101394.56
2022-10-31T16:44:05.879Z,101390.16
2022-10-31T16:47:16.469Z,101388.09
2022-10-31T16:50:20.833Z,101381.78
2022-10-31T16:53:18.526Z,101381.34
2022-10-31T16:56:24.635Z,101370.41
2022-10-31T16:59:21.878Z,101371.09
2022-10-31T17:02:19.523Z,101369.59
2022-10-31T17:05:18.226Z,101363.22
2022-10-31T17:08:15.231Z,101368.34
2022-10-31T17:11:18.268Z,101378.41
2022-10-31T17:14:15.481Z,101364.66
2022-10-31T17:17:12.432Z,101353.31
2022-10-31T17:20:20.762Z,101348.91
2022-10-31T17:23:18.117Z,101361.53
2022-10-31T17:26:15.006Z,101350.47
2022-10-31T17:29:12.145Z,101348.09
2022-10-31T17:32:09.399Z,101323.03
2022-10-31T17:35:06.530Z,101328.78
2022-10-31T17:38:04.230Z,101332.41
2022-10-31T17:41:09.960Z,101327.97
2022-10-31T17:44:12.529Z,101330.22
2022-10-31T17:47:09.043Z,101317.00
2022-10-31T17:50:06.869Z,101315.34
2022-10-31T17:53:04.504Z,101303.47
2022-10-31T17:56:06.323Z,101301.16
2022-10-31T17:59:03.621Z,101308.88
2022-10-31T18:02:01.720Z,101306.88
2022-10-31T18:04:59.367Z,101299.41
2022-10-31T18:07:58.306Z,101297.22
2022-10-31T18:11:01.318Z,101289.00
2022-10-31T18:13:58.389Z,101288.25
2022-10-31T18:16:55.134Z,101280.41
2022-10-31T18:19:52.360Z,101269.13
2022-10-31T18:22:49.313Z,101252.56
2022-10-31T18:25:46.236Z,101250.44
2022-10-31T18:28:43.695Z,101240.59
2022-10-31T18:31:41.090Z,101241.31
2022-10-31T18:34:38.293Z,101240.09
2022-10-31T18:37:35.153Z,101221.78
2022-10-31T18:40:33.419Z,101218.66
2022-10-31T18:43:30.083Z,101210.31
2022-10-31T18:46:27.547Z,101214.88
2022-10-31T18:49:24.537Z,101213.22
2022-10-31T18:52:21.309Z,101206.88
2022-10-31T18:55:18.716Z,101200.63
2022-10-31T18:58:16.831Z,101182.97
2022-10-31T19:01:14.738Z,101180.81
2022-10-31T19:04:12.278Z,101173.50
2022-10-31T19:07:09.021Z,101176.28
2022-10-31T19:10:06.711Z,101162.47
2022-10-31T19:13:04.725Z,101166.84
2022-10-31T19:16:14.146Z,101170.25
2022-10-31T19:19:11.326Z,101163.72
2022-10-31T19:22:08.330Z,101173.38
2022-10-31T19:25:09.291Z,101168.44
2022-10-31T19:28:07.410Z,101162.69
2022-10-31T19:31:04.219Z,101155.00
2022-10-31T19:34:01.205Z,101151.03
2022-10-31T19:36:58.850Z,101145.75
2022-10-31T19:39:56.092Z,101130.72
2022-10-31T19:42:53.335Z,101122.50
2022-10-31T19:45:55.097Z,101120.78
2022-10-31T19:48:52.749Z,101131.72
2022-10-31T19:51:50.833Z,101125.25
2022-10-31T19:54:49.272Z,101121.44
2022-10-31T19:58:01.384Z,101124.78
2022-10-31T20:04:01.269Z,101130.09
2022-10-31T20:06:58.312Z,101121.19
2022-10-31T20:09:55.142Z,101121.69
2022-10-31T20:12:52.499Z,101118.88
2022-10-31T20:15:49.999Z,101117.66
2022-10-31T20:18:47.316Z,101113.53
2022-10-31T20:21:44.335Z,101106.56
2022-10-31T20:24:41.446Z,101104.16
2022-10-31T20:27:38.288Z,101112.31
2022-10-31T20:30:37.095Z,101113.56
2022-10-31T20:33:34.406Z,101113.97
2022-10-31T20:36:31.595Z,101105.81
2022-10-31T20:39:28.688Z,101115.22
2022-10-31T20:42:25.499Z,101100.84
2022-10-31T20:45:22.165Z,101103.75
2022-10-31T20:48:20.581Z,101105.97
2022-10-31T20:51:19.381Z,101102.44
2022-10-31T20:54:18.507Z,101091.28
2022-10-31T20:57:15.617Z,101089.44
2022-10-31T21:00:12.537Z,101073.38
2022-10-31T21:03:09.574Z,101073.00
2022-10-31T21:06:06.400Z,101067.19
2022-10-31T21:09:03.132Z,101060.53
2022-10-31T21:12:00.680Z,101055.97
2022-10-31T21:14:57.165Z,101068.63
2022-10-31T21:17:55.733Z,101055.69
2022-10-31T21:20:52.548Z,101059.81
2022-10-31T21:23:57.677Z,101063.09
2022-10-31T21:26:54.575Z,101064.63
2022-10-31T21:29:51.464Z,101058.72
2022-10-31T21:32:48.302Z,101048.38
2022-10-31T21:35:50.733Z,101037.28
2022-10-31T21:38:51.411Z,101041.91
2022-10-31T21:41:48.353Z,101043.44
2022-10-31T21:44:45.174Z,101037.28
2022-10-31T21:47:42.767Z,101034.41
2022-10-31T21:50:40.603Z,101031.50
2022-10-31T21:53:55.563Z,101032.75
2022-10-31T21:56:52.377Z,101027.59
2022-10-31T21:59:49.317Z,101025.53
2022-10-31T22:02:46.139Z,101017.38
2022-10-31T22:05:43.689Z,101022.63
2022-10-31T22:08:40.872Z,101016.88
2022-10-31T22:11:39.850Z,101006.94
2022-10-31T22:14:37.501Z,101001.94
2022-10-31T22:17:34.601Z,100998.56
2022-10-31T22:20:31.561Z,100990.13
2022-10-31T22:23:28.997Z,100996.00
2022-10-31T22:26:26.736Z,100986.69
2022-10-31T22:29:23.460Z,100985.13
2022-10-31T22:32:20.288Z,100979.84
2022-10-31T22:35:17.535Z,100976.59
2022-10-31T22:38:14.611Z,100966.03
2022-10-31T22:41:12.730Z,100956.53
2022-10-31T22:44:10.023Z,100950.34
2022-10-31T22:47:07.254Z,100944.94
2022-10-31T22:50:04.972Z,100940.03
2022-10-31T22:53:02.483Z,100940.16
2022-10-31T22:55:59.426Z,100936.88
2022-10-31T22:58:56.575Z,100927.94
2022-10-31T23:01:54.476Z,100928.22
2022-10-31T23:04:51.483Z,100924.38
2022-10-31T23:07:48.446Z,100929.28
2022-10-31T23:10:45.982Z,100918.59
2022-10-31T23:14:06.510Z,100911.53
2022-10-31T23:17:03.767Z,100912.25
2022-10-31T23:20:00.686Z,100897.28
2022-10-31T23:22:57.412Z,100900.97
2022-10-31T23:26:13.665Z,100904.03
2022-10-31T23:29:10.513Z,100897.22
2022-10-31T23:32:11.133Z,100884.03
2022-10-31T23:35:09.342Z,100882.53
2022-10-31T23:38:06.391Z,100899.22
2022-10-31T23:41:03.943Z,100886.97
2022-10-31T23:44:01.312Z,100892.56
2022-10-31T23:46:58.608Z,100885.19
2022-10-31T23:49:55.857Z,100889.66
2022-10-31T23:52:52.431Z,100894.09
2022-10-31T23:55:49.572Z,100886.13
2022-10-31T23:58:46.600Z,100881.97
